sensor_id;sensor_type;location;lat;lon;timestamp;pressure;altitude;pressure_sealevel;temperature;humidity
81812;BME280;71243;51.848;5.768;2023-08-06T00:01:35;100499.00;;;15.76;82.35
81812;BME280;71243;51.848;5.768;2023-08-06T00:04:01;100494.44;;;15.70;83.25
81812;BME280;71243;51.848;5.768;2023-08-06T00:06:26;100502.81;;;15.67;83.25
81812;BME280;71243;51.848;5.768;2023-08-06T00:08:51;100508.97;;;15.68;83.35
81812;BME280;71243;51.848;5.768;2023-08-06T00:11:16;100499.19;;;15.75;82.78
81812;BME280;71243;51.848;5.768;2023-08-06T00:13:42;100495.13;;;15.79;82.96
81812;BME280;71243;51.848;5.768;2023-08-06T00:16:10;100498.22;;;15.82;82.64
81812;BME280;71243;51.848;5.768;2023-08-06T00:18:36;100493.16;;;15.87;82.48
81812;BME280;71243;51.848;5.768;2023-08-06T00:21:01;100489.69;;;15.87;82.56
81812;BME280;71243;51.848;5.768;2023-08-06T00:23:26;100482.78;;;15.92;82.76
81812;BME280;71243;51.848;5.768;2023-08-06T00:25:51;100483.56;;;15.93;81.96
81812;BME280;71243;51.848;5.768;2023-08-06T00:28:17;100484.34;;;15.87;83.34
81812;BME280;71243;51.848;5.768;2023-08-06T00:30:42;100484.34;;;15.87;82.46
81812;BME280;71243;51.848;5.768;2023-08-06T00:33:07;100482.13;;;15.90;82.54
81812;BME280;71243;51.848;5.768;2023-08-06T00:35:32;100481.28;;;15.90;82.50
81812;BME280;71243;51.848;5.768;2023-08-06T00:37:58;100475.97;;;15.90;82.80
81812;BME280;71243;51.848;5.768;2023-08-06T00:40:23;100482.94;;;15.91;82.56
81812;BME280;71243;51.848;5.768;2023-08-06T00:42:48;100474.78;;;15.92;82.44
81812;BME280;71243;51.848;5.768;2023-08-06T00:45:13;100481.75;;;15.93;82.11
81812;BME280;71243;51.848;5.768;2023-08-06T00:47:39;100476.84;;;15.97;82.27
81812;BME280;71243;51.848;5.768;2023-08-06T00:50:06;100481.16;;;15.98;82.65
81812;BME280;71243;51.848;5.768;2023-08-06T00:52:32;100477.50;;;15.99;82.12
81812;BME280;71243;51.848;5.768;2023-08-06T00:54:57;100487.72;;;15.95;82.22
81812;BME280;71243;51.848;5.768;2023-08-06T00:57:24;100478.63;;;15.90;82.61
81812;BME280;71243;51.848;5.768;2023-08-06T00:59:49;100482.94;;;15.91;83.02
81812;BME280;71243;51.848;5.768;2023-08-06T01:02:15;100485.75;;;15.83;82.58
81812;BME280;71243;51.848;5.768;2023-08-06T01:04:40;100484.28;;;15.80;82.86
81812;BME280;71243;51.848;5.768;2023-08-06T01:07:37;100483.28;;;15.81;82.90
81812;BME280;71243;51.848;5.768;2023-08-06T01:15:21;100481.28;;;15.90;83.03
81812;BME280;71243;51.848;5.768;2023-08-06T01:17:47;100481.97;;;15.98;82.84
81812;BME280;71243;51.848;5.768;2023-08-06T01:20:13;100478.69;;;15.96;83.41
81812;BME280;71243;51.848;5.768;2023-08-06T01:22:38;100483.56;;;15.93;83.12
81812;BME280;71243;51.848;5.768;2023-08-06T01:25:04;100481.94;;;15.92;83.47
81812;BME280;71243;51.848;5.768;2023-08-06T01:27:44;100475.13;;;15.89;83.83
81812;BME280;71243;51.848;5.768;2023-08-06T01:30:26;100479.47;;;15.90;83.36
81812;BME280;71243;51.848;5.768;2023-08-06T01:32:54;100472.47;;;15.89;84.10
81812;BME280;71243;51.848;5.768;2023-08-06T01:35:22;100466.78;;;15.92;83.88
81812;BME280;71243;51.848;5.768;2023-08-06T01:37:48;100466.69;;;15.86;85.22
81812;BME280;71243;51.848;5.768;2023-08-06T01:40:13;100465.06;;;15.85;84.98
81812;BME280;71243;51.848;5.768;2023-08-06T01:42:39;100470.84;;;15.88;85.10
81812;BME280;71243;51.848;5.768;2023-08-06T01:45:06;100464.88;;;15.86;84.94
81812;BME280;71243;51.848;5.768;2023-08-06T01:47:32;100474.56;;;15.94;84.43
81812;BME280;71243;51.848;5.768;2023-08-06T01:49:57;100477.44;;;15.92;84.53
81812;BME280;71243;51.848;5.768;2023-08-06T01:52:22;100468.28;;;15.80;85.08
81812;BME280;71243;51.848;5.768;2023-08-06T01:54:47;100467.72;;;15.85;84.95
81812;BME280;71243;51.848;5.768;2023-08-06T01:57:13;100467.09;;;15.83;85.02
81812;BME280;71243;51.848;5.768;2023-08-06T01:59:38;100471.59;;;15.82;85.23
81812;BME280;71243;51.848;5.768;2023-08-06T02:02:03;100466.66;;;15.79;85.54
81812;BME280;71243;51.848;5.768;2023-08-06T02:04:29;100465.19;;;15.77;85.76
81812;BME280;71243;51.848;5.768;2023-08-06T02:06:54;100463.59;;;15.82;84.68
81812;BME280;71243;51.848;5.768;2023-08-06T02:09:19;100463.22;;;15.85;84.85
81812;BME280;71243;51.848;5.768;2023-08-06T02:11:44;100465.19;;;15.77;85.60
81812;BME280;71243;51.848;5.768;2023-08-06T02:14:10;100470.59;;;15.83;84.98
81812;BME280;71243;51.848;5.768;2023-08-06T02:16:35;100468.91;;;15.82;85.33
81812;BME280;71243;51.848;5.768;2023-08-06T02:19:00;100472.47;;;15.89;84.89
81812;BME280;71243;51.848;5.768;2023-08-06T02:21:26;100462.41;;;15.85;85.33
81812;BME280;71243;51.848;5.768;2023-08-06T02:23:51;100463.84;;;15.87;85.19
81812;BME280;71243;51.848;5.768;2023-08-06T02:26:16;100463.69;;;15.89;85.38
81812;BME280;71243;51.848;5.768;2023-08-06T02:28:41;100461.56;;;15.84;85.58
81812;BME280;71243;51.848;5.768;2023-08-06T02:31:07;100462.19;;;15.86;84.53
81812;BME280;71243;51.848;5.768;2023-08-06T02:33:32;100465.13;;;15.91;85.20
81812;BME280;71243;51.848;5.768;2023-08-06T02:36:04;100454.91;;;15.95;84.66
81812;BME280;71243;51.848;5.768;2023-08-06T02:38:29;100450.97;;;15.91;85.01
81812;BME280;71243;51.848;5.768;2023-08-06T02:40:55;100453.06;;;15.95;84.49
81812;BME280;71243;51.848;5.768;2023-08-06T02:43:20;100448.25;;;15.84;84.95
81812;BME280;71243;51.848;5.768;2023-08-06T02:45:45;100449.28;;;15.83;84.55
81812;BME280;71243;51.848;5.768;2023-08-06T02:48:11;100456.44;;;15.83;85.26
81812;BME280;71243;51.848;5.768;2023-08-06T02:50:40;100440.84;;;15.80;84.94
81812;BME280;71243;51.848;5.768;2023-08-06T02:53:06;100447.56;;;15.76;85.06
81812;BME280;71243;51.848;5.768;2023-08-06T02:55:32;100445.72;;;15.76;85.36
81812;BME280;71243;51.848;5.768;2023-08-06T02:57:57;100447.13;;;15.72;85.80
81812;BME280;71243;51.848;5.768;2023-08-06T03:00:22;100446.09;;;15.73;85.86
81812;BME280;71243;51.848;5.768;2023-08-06T03:02:47;100449.19;;;15.77;85.41
81812;BME280;71243;51.848;5.768;2023-08-06T03:05:13;100439.56;;;15.76;85.33
81812;BME280;71243;51.848;5.768;2023-08-06T03:07:38;100445.03;;;15.68;85.90
81812;BME280;71243;51.848;5.768;2023-08-06T03:10:03;100446.28;;;15.72;85.43
81812;BME280;71243;51.848;5.768;2023-08-06T03:12:29;100446.91;;;15.74;85.68
81812;BME280;71243;51.848;5.768;2023-08-06T03:14:54;100442.44;;;15.74;85.63
81812;BME280;71243;51.848;5.768;2023-08-06T03:17:20;100445.72;;;15.76;86.05
81812;BME280;71243;51.848;5.768;2023-08-06T03:19:45;100436.50;;;15.79;85.46
81812;BME280;71243;51.848;5.768;2023-08-06T03:22:10;100435.88;;;15.77;85.77
81812;BME280;71243;51.848;5.768;2023-08-06T03:24:35;100437.75;;;15.76;86.47
81812;BME280;71243;51.848;5.768;2023-08-06T03:27:01;100439.81;;;15.81;85.88
81812;BME280;71243;51.848;5.768;2023-08-06T03:29:26;100448.25;;;15.84;85.90
81812;BME280;71243;51.848;5.768;2023-08-06T03:31:52;100443.75;;;15.85;86.34
81812;BME280;71243;51.848;5.768;2023-08-06T03:34:17;100445.19;;;15.87;85.66
81812;BME280;71243;51.848;5.768;2023-08-06T03:36:42;100440.50;;;15.89;85.90
81812;BME280;71243;51.848;5.768;2023-08-06T03:39:07;100441.53;;;15.88;85.76
81812;BME280;71243;51.848;5.768;2023-08-06T03:41:33;100442.97;;;15.91;85.16
81812;BME280;71243;51.848;5.768;2023-08-06T03:43:58;100439.31;;;15.92;85.36
81812;BME280;71243;51.848;5.768;2023-08-06T03:46:23;100444.22;;;15.95;85.36
81812;BME280;71243;51.848;5.768;2023-08-06T03:48:48;100452.03;;;15.96;85.18
81812;BME280;71243;51.848;5.768;2023-08-06T03:51:14;100440.69;;;15.88;85.55
81812;BME280;71243;51.848;5.768;2023-08-06T03:53:39;100440.13;;;15.92;85.17
81812;BME280;71243;51.848;5.768;2023-08-06T03:56:04;100436.88;;;15.97;85.26
81812;BME280;71243;51.848;5.768;2023-08-06T03:58:29;100440.81;;;16.01;85.31
81812;BME280;71243;51.848;5.768;2023-08-06T04:01:02;100440.63;;;16.02;85.29
81812;BME280;71243;51.848;5.768;2023-08-06T04:03:28;100433.25;;;16.04;85.30
81812;BME280;71243;51.848;5.768;2023-08-06T04:05:54;100438.16;;;16.01;85.21
81812;BME280;71243;51.848;5.768;2023-08-06T04:08:19;100436.72;;;16.05;85.32
81812;BME280;71243;51.848;5.768;2023-08-06T04:10:45;100434.06;;;16.05;85.12
81812;BME280;71243;51.848;5.768;2023-08-06T04:13:10;100435.53;;;16.07;85.21
81812;BME280;71243;51.848;5.768;2023-08-06T04:15:35;100437.22;;;16.15;84.70
81812;BME280;71243;51.848;5.768;2023-08-06T04:18:01;100439.91;;;16.15;84.58
81812;BME280;71243;51.848;5.768;2023-08-06T04:20:26;100432.91;;;16.14;84.87
81812;BME280;71243;51.848;5.768;2023-08-06T04:22:54;100443.28;;;16.02;85.78
81812;BME280;71243;51.848;5.768;2023-08-06T04:25:19;100448.84;;;16.07;85.76
81812;BME280;71243;51.848;5.768;2023-08-06T04:27:45;100439.94;;;15.94;86.55
81812;BME280;71243;51.848;5.768;2023-08-06T04:30:10;100447.50;;;15.90;86.98
81812;BME280;71243;51.848;5.768;2023-08-06T04:32:35;100445.03;;;15.89;86.62
81812;BME280;71243;51.848;5.768;2023-08-06T04:35:01;100455.25;;;15.85;87.22
81812;BME280;71243;51.848;5.768;2023-08-06T04:37:26;100451.50;;;15.80;87.62
81812;BME280;71243;51.848;5.768;2023-08-06T04:39:51;100449.38;;;15.75;87.53
81812;BME280;71243;51.848;5.768;2023-08-06T04:42:16;100454.09;;;15.73;87.77
81812;BME280;71243;51.848;5.768;2023-08-06T04:44:42;100456.75;;;15.73;87.62
81812;BME280;71243;51.848;5.768;2023-08-06T04:47:07;100452.63;;;15.71;87.78
81812;BME280;71243;51.848;5.768;2023-08-06T04:49:32;100456.88;;;15.65;88.40
81812;BME280;71243;51.848;5.768;2023-08-06T04:51:57;100461.38;;;15.65;88.47
81812;BME280;71243;51.848;5.768;2023-08-06T04:54:23;100459.75;;;15.64;88.16
81812;BME280;71243;51.848;5.768;2023-08-06T04:56:48;100466.06;;;15.63;88.76
81812;BME280;71243;51.848;5.768;2023-08-06T04:59:13;100465.97;;;15.71;88.00
81812;BME280;71243;51.848;5.768;2023-08-06T05:01:38;100473.00;;;15.78;88.24
81812;BME280;71243;51.848;5.768;2023-08-06T05:04:03;100468.56;;;15.85;87.59
81812;BME280;71243;51.848;5.768;2023-08-06T05:06:29;100469.94;;;15.81;88.35
81812;BME280;71243;51.848;5.768;2023-08-06T05:08:54;100473.81;;;15.79;87.64
81812;BME280;71243;51.848;5.768;2023-08-06T05:11:19;100478.34;;;15.78;87.48
81812;BME280;71243;51.848;5.768;2023-08-06T05:13:44;100467.78;;;15.91;87.28
81812;BME280;71243;51.848;5.768;2023-08-06T05:16:10;100467.28;;;16.02;86.60
81812;BME280;71243;51.848;5.768;2023-08-06T05:18:35;100474.81;;;15.99;86.67
81812;BME280;71243;51.848;5.768;2023-08-06T05:21:00;100475.53;;;16.14;86.07
81812;BME280;71243;51.848;5.768;2023-08-06T05:23:25;100470.63;;;16.11;85.84
81812;BME280;71243;51.848;5.768;2023-08-06T05:25:50;100475.41;;;16.22;85.26
81812;BME280;71243;51.848;5.768;2023-08-06T05:28:16;100477.22;;;16.15;86.00
81812;BME280;71243;51.848;5.768;2023-08-06T05:30:41;100473.41;;;16.24;85.61
81812;BME280;71243;51.848;5.768;2023-08-06T05:33:06;100476.66;;;16.26;86.24
81812;BME280;71243;51.848;5.768;2023-08-06T05:35:32;100485.94;;;16.30;85.92
81812;BME280;71243;51.848;5.768;2023-08-06T05:37:57;100491.31;;;16.36;85.66
81812;BME280;71243;51.848;5.768;2023-08-06T05:40:22;100497.47;;;16.37;85.47
81812;BME280;71243;51.848;5.768;2023-08-06T05:42:47;100495.88;;;16.42;85.25
81812;BME280;71243;51.848;5.768;2023-08-06T05:45:13;100504.13;;;16.48;84.81
81812;BME280;71243;51.848;5.768;2023-08-06T05:47:38;100496.72;;;16.43;85.39
81812;BME280;71243;51.848;5.768;2023-08-06T05:50:04;100507.47;;;16.56;84.72
81812;BME280;71243;51.848;5.768;2023-08-06T05:52:29;100505.00;;;16.55;84.56
81812;BME280;71243;51.848;5.768;2023-08-06T05:54:54;100508.06;;;16.52;84.55
81812;BME280;71243;51.848;5.768;2023-08-06T05:57:19;100513.41;;;16.52;84.90
81812;BME280;71243;51.848;5.768;2023-08-06T05:59:45;100514.31;;;16.37;84.80
81812;BME280;71243;51.848;5.768;2023-08-06T06:02:10;100516.28;;;16.29;85.17
81812;BME280;71243;51.848;5.768;2023-08-06T06:04:35;100519.16;;;16.27;86.39
81812;BME280;71243;51.848;5.768;2023-08-06T06:07:00;100520.84;;;16.35;85.62
81812;BME280;71243;51.848;5.768;2023-08-06T06:09:26;100527.03;;;16.42;85.60
81812;BME280;71243;51.848;5.768;2023-08-06T06:11:51;100528.97;;;16.48;85.39
81812;BME280;71243;51.848;5.768;2023-08-06T06:14:17;100532.47;;;16.49;84.87
81812;BME280;71243;51.848;5.768;2023-08-06T06:16:42;100536.25;;;16.61;84.84
81812;BME280;71243;51.848;5.768;2023-08-06T06:19:08;100541.38;;;16.62;84.47
81812;BME280;71243;51.848;5.768;2023-08-06T06:21:33;100543.41;;;16.60;84.23
81812;BME280;71243;51.848;5.768;2023-08-06T06:23:58;100548.13;;;16.58;84.27
81812;BME280;71243;51.848;5.768;2023-08-06T06:26:23;100548.16;;;16.65;84.07
81812;BME280;71243;51.848;5.768;2023-08-06T06:28:49;100549.66;;;16.74;84.07
81812;BME280;71243;51.848;5.768;2023-08-06T06:31:14;100554.00;;;16.75;83.72
81812;BME280;71243;51.848;5.768;2023-08-06T06:33:39;100546.63;;;16.49;84.92
81812;BME280;71243;51.848;5.768;2023-08-06T06:36:04;100552.38;;;16.53;85.16
81812;BME280;71243;51.848;5.768;2023-08-06T06:38:29;100551.84;;;16.36;85.23
81812;BME280;71243;51.848;5.768;2023-08-06T06:40:55;100565.41;;;16.41;86.38
81812;BME280;71243;51.848;5.768;2023-08-06T06:43:21;100560.19;;;16.33;87.62
81812;BME280;71243;51.848;5.768;2023-08-06T06:45:46;100561.41;;;16.30;86.99
81812;BME280;71243;51.848;5.768;2023-08-06T06:48:12;100562.06;;;16.32;86.23
81812;BME280;71243;51.848;5.768;2023-08-06T06:50:37;100564.91;;;16.31;86.54
81812;BME280;71243;51.848;5.768;2023-08-06T06:53:02;100565.16;;;16.36;86.61
81812;BME280;71243;51.848;5.768;2023-08-06T06:55:27;100573.66;;;16.46;86.58
81812;BME280;71243;51.848;5.768;2023-08-06T06:57:52;100570.28;;;16.59;85.64
81812;BME280;71243;51.848;5.768;2023-08-06T07:00:18;100571.69;;;16.55;86.78
81812;BME280;71243;51.848;5.768;2023-08-06T07:02:43;100571.75;;;16.61;84.79
81812;BME280;71243;51.848;5.768;2023-08-06T07:05:08;100570.81;;;16.48;85.28
81812;BME280;71243;51.848;5.768;2023-08-06T07:07:34;100579.81;;;16.68;85.03
81812;BME280;71243;51.848;5.768;2023-08-06T07:09:59;100574.72;;;16.73;85.11
81812;BME280;71243;51.848;5.768;2023-08-06T07:12:24;100574.50;;;16.74;84.97
81812;BME280;71243;51.848;5.768;2023-08-06T07:14:49;100576.09;;;16.69;84.41
81812;BME280;71243;51.848;5.768;2023-08-06T07:17:14;100577.22;;;16.53;84.83
81812;BME280;71243;51.848;5.768;2023-08-06T07:19:40;100586.97;;;16.46;85.64
81812;BME280;71243;51.848;5.768;2023-08-06T07:22:05;100582.31;;;16.48;86.45
81812;BME280;71243;51.848;5.768;2023-08-06T07:24:30;100579.31;;;16.58;85.74
81812;BME280;71243;51.848;5.768;2023-08-06T07:26:55;100584.28;;;16.61;85.76
81812;BME280;71243;51.848;5.768;2023-08-06T07:29:21;100588.78;;;16.60;86.46
81812;BME280;71243;51.848;5.768;2023-08-06T07:31:46;100589.66;;;16.46;86.77
81812;BME280;71243;51.848;5.768;2023-08-06T07:34:11;100595.56;;;16.41;87.24
81812;BME280;71243;51.848;5.768;2023-08-06T07:36:37;100596.97;;;16.37;87.29
81812;BME280;71243;51.848;5.768;2023-08-06T07:39:02;100600.19;;;16.54;86.94
81812;BME280;71243;51.848;5.768;2023-08-06T07:41:28;100600.28;;;16.61;86.83
81812;BME280;71243;51.848;5.768;2023-08-06T07:43:53;100599.47;;;16.67;86.50
81812;BME280;71243;51.848;5.768;2023-08-06T07:46:18;100604.72;;;16.54;86.67
81812;BME280;71243;51.848;5.768;2023-08-06T07:48:43;100608.84;;;16.56;86.42
81812;BME280;71243;51.848;5.768;2023-08-06T07:51:09;100604.03;;;16.66;86.83
81812;BME280;71243;51.848;5.768;2023-08-06T07:53:34;100605.47;;;16.69;86.90
81812;BME280;71243;51.848;5.768;2023-08-06T07:55:59;100610.47;;;16.78;86.22
81812;BME280;71243;51.848;5.768;2023-08-06T07:58:25;100605.56;;;16.82;86.00
81812;BME280;71243;51.848;5.768;2023-08-06T08:00:51;100614.44;;;16.89;86.04
81812;BME280;71243;51.848;5.768;2023-08-06T08:03:16;100608.28;;;16.88;86.24
81812;BME280;71243;51.848;5.768;2023-08-06T08:05:42;100607.53;;;17.01;85.55
81812;BME280;71243;51.848;5.768;2023-08-06T08:08:08;100609.25;;;17.08;85.34
81812;BME280;71243;51.848;5.768;2023-08-06T08:10:34;100605.97;;;17.13;84.96
81812;BME280;71243;51.848;5.768;2023-08-06T08:13:03;100602.53;;;17.19;84.71
81812;BME280;71243;51.848;5.768;2023-08-06T08:15:29;100615.72;;;17.27;84.38
81812;BME280;71243;51.848;5.768;2023-08-06T08:17:57;100606.34;;;17.03;84.23
81812;BME280;71243;51.848;5.768;2023-08-06T08:20:22;100616.09;;;16.90;85.33
81812;BME280;71243;51.848;5.768;2023-08-06T08:22:48;100616.72;;;16.92;85.59
81812;BME280;71243;51.848;5.768;2023-08-06T08:25:13;100621.78;;;16.80;84.53
81812;BME280;71243;51.848;5.768;2023-08-06T08:27:39;100609.25;;;16.81;85.37
81812;BME280;71243;51.848;5.768;2023-08-06T08:30:05;100612.25;;;16.99;85.09
81812;BME280;71243;51.848;5.768;2023-08-06T08:32:30;100616.75;;;16.98;84.90
81812;BME280;71243;51.848;5.768;2023-08-06T08:34:55;100616.44;;;17.14;84.73
81812;BME280;71243;51.848;5.768;2023-08-06T08:37:21;100614.31;;;17.31;84.64
81812;BME280;71243;51.848;5.768;2023-08-06T08:39:46;100626.25;;;17.35;84.77
81812;BME280;71243;51.848;5.768;2023-08-06T08:42:11;100622.38;;;17.44;84.72
81812;BME280;71243;51.848;5.768;2023-08-06T08:44:37;100622.97;;;17.39;83.32
81812;BME280;71243;51.848;5.768;2023-08-06T08:47:03;100628.81;;;17.49;83.50
81812;BME280;71243;51.848;5.768;2023-08-06T08:49:29;100629.66;;;17.57;83.86
81812;BME280;71243;51.848;5.768;2023-08-06T08:51:55;100633.38;;;17.62;83.19
81812;BME280;71243;51.848;5.768;2023-08-06T08:54:23;100638.69;;;17.49;81.68
81812;BME280;71243;51.848;5.768;2023-08-06T08:56:50;100641.41;;;17.28;81.81
81812;BME280;71243;51.848;5.768;2023-08-06T08:59:15;100625.56;;;17.26;81.36
81812;BME280;71243;51.848;5.768;2023-08-06T09:01:42;100629.16;;;17.12;81.13
81812;BME280;71243;51.848;5.768;2023-08-06T09:04:07;100635.00;;;16.95;81.42
81812;BME280;71243;51.848;5.768;2023-08-06T09:06:36;100646.44;;;16.82;82.24
81812;BME280;71243;51.848;5.768;2023-08-06T09:09:08;100650.38;;;16.65;82.12
81812;BME280;71243;51.848;5.768;2023-08-06T09:11:39;100650.44;;;16.51;82.53
81812;BME280;71243;51.848;5.768;2023-08-06T09:14:06;100649.47;;;16.37;82.81
81812;BME280;71243;51.848;5.768;2023-08-06T09:16:31;100658.59;;;16.28;83.16
81812;BME280;71243;51.848;5.768;2023-08-06T09:19:07;100664.50;;;16.23;83.14
81812;BME280;71243;51.848;5.768;2023-08-06T09:21:32;100665.19;;;16.11;83.41
81812;BME280;71243;51.848;5.768;2023-08-06T09:23:58;100672.88;;;15.99;83.66
81812;BME280;71243;51.848;5.768;2023-08-06T09:26:24;100676.34;;;16.00;83.84
81812;BME280;71243;51.848;5.768;2023-08-06T09:28:49;100679.38;;;15.97;83.80
81812;BME280;71243;51.848;5.768;2023-08-06T09:31:14;100689.66;;;16.00;83.89
81812;BME280;71243;51.848;5.768;2023-08-06T09:33:39;100689.41;;;15.95;84.18
81812;BME280;71243;51.848;5.768;2023-08-06T09:36:11;100697.31;;;15.88;84.32
81812;BME280;71243;51.848;5.768;2023-08-06T09:38:40;100697.06;;;15.83;84.33
81812;BME280;71243;51.848;5.768;2023-08-06T09:41:06;100692.84;;;15.74;84.74
81812;BME280;71243;51.848;5.768;2023-08-06T09:43:40;100693.94;;;15.65;85.82
81812;BME280;71243;51.848;5.768;2023-08-06T09:46:11;100703.13;;;15.63;85.80
81812;BME280;71243;51.848;5.768;2023-08-06T09:48:36;100703.28;;;15.61;85.68
81812;BME280;71243;51.848;5.768;2023-08-06T09:51:02;100708.81;;;15.60;85.52
81812;BME280;71243;51.848;5.768;2023-08-06T09:53:28;100705.97;;;15.61;85.75
81812;BME280;71243;51.848;5.768;2023-08-06T09:55:54;100708.75;;;15.68;85.13
81812;BME280;71243;51.848;5.768;2023-08-06T09:58:21;100711.03;;;15.71;85.22
81812;BME280;71243;51.848;5.768;2023-08-06T10:00:48;100711.84;;;15.71;85.15
81812;BME280;71243;51.848;5.768;2023-08-06T10:03:13;100706.41;;;15.65;85.56
81812;BME280;71243;51.848;5.768;2023-08-06T10:05:39;100716.53;;;15.69;85.65
81812;BME280;71243;51.848;5.768;2023-08-06T10:08:05;100714.97;;;15.60;85.97
81812;BME280;71243;51.848;5.768;2023-08-06T10:10:31;100725.81;;;15.59;86.01
81812;BME280;71243;51.848;5.768;2023-08-06T10:12:58;100720.38;;;15.52;85.94
81812;BME280;71243;51.848;5.768;2023-08-06T10:15:26;100726.91;;;15.50;86.44
81812;BME280;71243;51.848;5.768;2023-08-06T10:17:54;100729.75;;;15.48;86.31
81812;BME280;71243;51.848;5.768;2023-08-06T10:20:20;100728.81;;;15.56;86.37
81812;BME280;71243;51.848;5.768;2023-08-06T10:22:46;100728.38;;;15.52;86.18
81812;BME280;71243;51.848;5.768;2023-08-06T10:25:16;100735.44;;;15.60;86.00
81812;BME280;71243;51.848;5.768;2023-08-06T10:27:53;100730.97;;;15.60;86.28
81812;BME280;71243;51.848;5.768;2023-08-06T10:30:32;100736.09;;;15.62;86.74
81812;BME280;71243;51.848;5.768;2023-08-06T10:33:04;100739.22;;;15.65;86.41
81812;BME280;71243;51.848;5.768;2023-08-06T10:35:31;100744.19;;;15.54;86.12
81812;BME280;71243;51.848;5.768;2023-08-06T10:38:25;100748.31;;;15.56;86.80
81812;BME280;71243;51.848;5.768;2023-08-06T10:43:29;100740.31;;;15.71;86.28
81812;BME280;71243;51.848;5.768;2023-08-06T10:45:55;100734.25;;;15.77;86.01
81812;BME280;71243;51.848;5.768;2023-08-06T10:48:38;100740.88;;;15.81;85.54
81812;BME280;71243;51.848;5.768;2023-08-06T10:51:09;100751.34;;;15.82;86.08
81812;BME280;71243;51.848;5.768;2023-08-06T10:53:35;100752.91;;;15.77;85.99
81812;BME280;71243;51.848;5.768;2023-08-06T10:56:01;100756.66;;;15.82;85.73
81812;BME280;71243;51.848;5.768;2023-08-06T10:58:33;100754.09;;;15.74;85.52
81812;BME280;71243;51.848;5.768;2023-08-06T11:00:59;100753.53;;;15.79;85.95
81812;BME280;71243;51.848;5.768;2023-08-06T11:03:26;100764.00;;;15.80;85.93
81812;BME280;71243;51.848;5.768;2023-08-06T11:05:52;100770.56;;;15.78;86.10
81812;BME280;71243;51.848;5.768;2023-08-06T11:08:27;100770.16;;;15.81;85.64
81812;BME280;71243;51.848;5.768;2023-08-06T11:10:53;100773.50;;;15.83;85.54
81812;BME280;71243;51.848;5.768;2023-08-06T11:13:18;100774.06;;;15.78;85.64
81812;BME280;71243;51.848;5.768;2023-08-06T11:15:44;100787.38;;;15.78;85.64
81812;BME280;71243;51.848;5.768;2023-08-06T11:18:10;100782.56;;;15.74;85.97
81812;BME280;71243;51.848;5.768;2023-08-06T11:20:36;100784.97;;;15.69;85.92
81812;BME280;71243;51.848;5.768;2023-08-06T11:23:01;100786.91;;;15.75;86.19
81812;BME280;71243;51.848;5.768;2023-08-06T11:25:26;100786.72;;;15.76;85.34
81812;BME280;71243;51.848;5.768;2023-08-06T11:27:52;100791.88;;;15.78;85.58
81812;BME280;71243;51.848;5.768;2023-08-06T11:30:17;100787.47;;;15.85;86.00
81812;BME280;71243;51.848;5.768;2023-08-06T11:32:48;100798.31;;;15.83;86.22
81812;BME280;71243;51.848;5.768;2023-08-06T11:35:14;100791.03;;;15.77;85.61
81812;BME280;71243;51.848;5.768;2023-08-06T11:37:44;100791.75;;;15.86;85.90
81812;BME280;71243;51.848;5.768;2023-08-06T11:40:10;100796.56;;;15.90;85.34
81812;BME280;71243;51.848;5.768;2023-08-06T11:42:35;100803.63;;;15.83;85.15
81812;BME280;71243;51.848;5.768;2023-08-06T11:45:02;100804.44;;;15.84;84.14
81812;BME280;71243;51.848;5.768;2023-08-06T11:47:28;100808.56;;;15.72;84.41
81812;BME280;71243;51.848;5.768;2023-08-06T11:49:53;100815.38;;;15.74;84.39
81812;BME280;71243;51.848;5.768;2023-08-06T11:52:20;100813.81;;;15.80;83.97
81812;BME280;71243;51.848;5.768;2023-08-06T11:54:47;100823.00;;;15.77;84.33
81812;BME280;71243;51.848;5.768;2023-08-06T11:57:13;100815.09;;;15.69;84.10
81812;BME280;71243;51.848;5.768;2023-08-06T11:59:39;100813.63;;;15.67;83.68
81812;BME280;71243;51.848;5.768;2023-08-06T12:02:05;100814.97;;;15.63;83.17
81812;BME280;71243;51.848;5.768;2023-08-06T12:04:57;100822.16;;;15.62;84.05
81812;BME280;71243;51.848;5.768;2023-08-06T12:07:27;100822.03;;;15.56;83.33
81812;BME280;71243;51.848;5.768;2023-08-06T12:09:52;100819.50;;;15.62;83.62
81812;BME280;71243;51.848;5.768;2023-08-06T12:12:17;100827.09;;;15.51;84.34
81812;BME280;71243;51.848;5.768;2023-08-06T12:14:42;100828.28;;;15.63;84.74
81812;BME280;71243;51.848;5.768;2023-08-06T12:17:07;100829.03;;;15.57;84.56
81812;BME280;71243;51.848;5.768;2023-08-06T12:19:33;100831.59;;;15.50;84.17
81812;BME280;71243;51.848;5.768;2023-08-06T12:21:58;100839.50;;;15.58;84.30
81812;BME280;71243;51.848;5.768;2023-08-06T12:24:23;100845.47;;;15.60;83.82
81812;BME280;71243;51.848;5.768;2023-08-06T12:26:48;100863.66;;;15.57;84.88
81812;BME280;71243;51.848;5.768;2023-08-06T12:29:14;100853.84;;;15.57;85.33
81812;BME280;71243;51.848;5.768;2023-08-06T12:31:39;100856.97;;;15.61;85.81
81812;BME280;71243;51.848;5.768;2023-08-06T12:34:04;100860.38;;;15.69;85.09
81812;BME280;71243;51.848;5.768;2023-08-06T12:36:29;100864.50;;;15.72;85.32
81812;BME280;71243;51.848;5.768;2023-08-06T12:38:54;100856.00;;;15.76;85.35
81812;BME280;71243;51.848;5.768;2023-08-06T12:41:20;100863.25;;;15.82;85.78
81812;BME280;71243;51.848;5.768;2023-08-06T12:43:45;100862.91;;;15.85;85.49
81812;BME280;71243;51.848;5.768;2023-08-06T12:46:10;100871.16;;;15.90;85.85
81812;BME280;71243;51.848;5.768;2023-08-06T12:48:35;100862.63;;;15.95;85.76
81812;BME280;71243;51.848;5.768;2023-08-06T12:51:01;100864.34;;;15.88;85.59
81812;BME280;71243;51.848;5.768;2023-08-06T12:53:26;100877.44;;;15.97;85.70